sensor_id;sensor_type;location;lat;lon;timestamp;pressure;altitude;pressure_sealevel;temperature;humidity
50430;BME280;36359;41.556;-8.418;2024-01-15T00:02:22;62167.13;;;15.87;100.00
50430;BME280;36359;41.556;-8.418;2024-01-15T00:04:48;62172.00;;;15.89;100.00
50430;BME280;36359;41.556;-8.418;2024-01-15T00:07:13;62180.00;;;15.97;100.00
50430;BME280;36359;41.556;-8.418;2024-01-15T00:09:39;62174.06;;;15.96;100.00
50430;BME280;36359;41.556;-8.418;2024-01-15T00:12:05;62182.13;;;16.01;100.00
50430;BME280;36359;41.556;-8.418;2024-01-15T00:14:31;62171.38;;;15.94;100.00
50430;BME280;36359;41.556;-8.418;2024-01-15T00:16:57;62174.63;;;15.94;100.00
50430;BME280;36359;41.556;-8.418;2024-01-15T00:19:23;62174.59;;;15.97;100.00
50430;BME280;36359;41.556;-8.418;2024-01-15T00:21:50;62177.84;;;15.97;100.00
50430;BME280;36359;41.556;-8.418;2024-01-15T00:24:16;62175.69;;;15.98;100.00
50430;BME280;36359;41.556;-8.418;2024-01-15T00:26:43;62170.31;;;15.93;100.00
50430;BME280;36359;41.556;-8.418;2024-01-15T00:29:09;62173.06;;;15.90;100.00
50430;BME280;36359;41.556;-8.418;2024-01-15T00:31:35;62161.78;;;15.82;100.00
50430;BME280;36359;41.556;-8.418;2024-01-15T00:34:01;62164.44;;;15.84;100.00
50430;BME280;36359;41.556;-8.418;2024-01-15T00:36:27;62157.50;;;15.78;100.00
50430;BME280;36359;41.556;-8.418;2024-01-15T00:38:53;62160.75;;;15.78;100.00
50430;BME280;36359;41.556;-8.418;2024-01-15T00:41:19;62166.59;;;15.86;100.00
50430;BME280;36359;41.556;-8.418;2024-01-15T00:43:46;62163.88;;;15.86;100.00
50430;BME280;36359;41.556;-8.418;2024-01-15T00:46:11;62172.00;;;15.89;100.00
50430;BME280;36359;41.556;-8.418;2024-01-15T00:48:37;62171.41;;;15.91;100.00
50430;BME280;36359;41.556;-8.418;2024-01-15T00:51:06;62181.59;;;16.01;100.00
50430;BME280;36359;41.556;-8.418;2024-01-15T00:53:32;62187.50;;;16.06;100.00
50430;BME280;36359;41.556;-8.418;2024-01-15T00:55:58;62188.06;;;16.04;100.00
50430;BME280;36359;41.556;-8.418;2024-01-15T00:58:25;62189.66;;;16.06;100.00
50430;BME280;36359;41.556;-8.418;2024-01-15T01:00:50;62179.97;;;15.99;100.00
50430;BME280;36359;41.556;-8.418;2024-01-15T01:03:16;62189.09;;;16.08;100.00
50430;BME280;36359;41.556;-8.418;2024-01-15T01:05:42;62181.06;;;16.00;100.00
50430;BME280;36359;41.556;-8.418;2024-01-15T01:08:08;62186.91;;;16.08;100.00
50430;BME280;36359;41.556;-8.418;2024-01-15T01:10:34;62186.94;;;16.06;100.00
50430;BME280;36359;41.556;-8.418;2024-01-15T01:13:00;62187.50;;;16.06;100.00
50430;BME280;36359;41.556;-8.418;2024-01-15T01:15:25;62192.84;;;16.11;100.00
50430;BME280;36359;41.556;-8.418;2024-01-15T01:17:51;62196.00;;;16.17;100.00
50430;BME280;36359;41.556;-8.418;2024-01-15T01:20:17;62191.22;;;16.10;100.00
50430;BME280;36359;41.556;-8.418;2024-01-15T01:22:43;62197.69;;;16.13;100.00
50430;BME280;36359;41.556;-8.418;2024-01-15T01:25:08;62190.19;;;16.06;100.00
50430;BME280;36359;41.556;-8.418;2024-01-15T01:27:35;62185.91;;;16.02;100.00
50430;BME280;36359;41.556;-8.418;2024-01-15T01:30:01;62179.41;;;16.01;100.00
50430;BME280;36359;41.556;-8.418;2024-01-15T01:32:27;62175.69;;;15.95;100.00
50430;BME280;36359;41.556;-8.418;2024-01-15T01:34:52;62175.69;;;15.95;100.00
50430;BME280;36359;41.556;-8.418;2024-01-15T01:37:18;62168.69;;;15.91;100.00
50430;BME280;36359;41.556;-8.418;2024-01-15T01:39:44;62169.78;;;15.92;100.00
50430;BME280;36359;41.556;-8.418;2024-01-15T01:42:11;62174.13;;;15.91;100.00
50430;BME280;36359;41.556;-8.418;2024-01-15T01:44:37;62176.78;;;15.96;100.00
50430;BME280;36359;41.556;-8.418;2024-01-15T01:47:03;62176.25;;;15.93;100.00
50430;BME280;36359;41.556;-8.418;2024-01-15T01:49:29;62173.53;;;15.96;100.00
50430;BME280;36359;41.556;-8.418;2024-01-15T01:52:00;62182.69;;;15.99;100.00
50430;BME280;36359;41.556;-8.418;2024-01-15T01:54:29;62176.78;;;15.96;100.00
50430;BME280;36359;41.556;-8.418;2024-01-15T01:56:56;62175.16;;;15.97;100.00
50430;BME280;36359;41.556;-8.418;2024-01-15T01:59:23;62178.41;;;15.95;100.00
50430;BME280;36359;41.556;-8.418;2024-01-15T02:01:49;62174.13;;;15.91;100.00
50430;BME280;36359;41.556;-8.418;2024-01-15T02:04:15;62182.13;;;16.01;100.00
50430;BME280;36359;41.556;-8.418;2024-01-15T02:06:41;62185.34;;;16.04;100.00
50430;BME280;36359;41.556;-8.418;2024-01-15T02:09:08;62189.13;;;16.05;100.00
50430;BME280;36359;41.556;-8.418;2024-01-15T02:11:35;62189.63;;;16.08;100.00
50430;BME280;36359;41.556;-8.418;2024-01-15T02:14:02;62191.22;;;16.12;100.00
50430;BME280;36359;41.556;-8.418;2024-01-15T02:16:28;62201.44;;;16.17;100.00
50430;BME280;36359;41.556;-8.418;2024-01-15T02:18:53;62190.16;;;16.09;100.00
50430;BME280;36359;41.556;-8.418;2024-01-15T02:21:19;62185.38;;;16.02;100.00
50430;BME280;36359;41.556;-8.418;2024-01-15T02:23:45;62177.81;;;16.00;100.00
50430;BME280;36359;41.556;-8.418;2024-01-15T02:26:11;62180.56;;;15.97;100.00
50430;BME280;36359;41.556;-8.418;2024-01-15T02:28:37;62173.56;;;15.93;100.00
50430;BME280;36359;41.556;-8.418;2024-01-15T02:31:03;62172.00;;;15.89;100.00
50430;BME280;36359;41.556;-8.418;2024-01-15T02:33:29;62171.41;;;15.91;100.00
50430;BME280;36359;41.556;-8.418;2024-01-15T02:35:54;62162.28;;;15.85;100.00
50430;BME280;36359;41.556;-8.418;2024-01-15T02:38:20;62171.47;;;15.88;100.00
50430;BME280;36359;41.556;-8.418;2024-01-15T02:40:46;62169.78;;;15.92;100.00
50430;BME280;36359;41.556;-8.418;2024-01-15T02:43:12;62161.78;;;15.82;100.00
50430;BME280;36359;41.556;-8.418;2024-01-15T02:45:39;62164.47;;;15.82;100.00
50430;BME280;36359;41.556;-8.418;2024-01-15T02:48:05;62163.41;;;15.81;100.00
50430;BME280;36359;41.556;-8.418;2024-01-15T02:50:31;62161.75;;;15.84;100.00
50430;BME280;36359;41.556;-8.418;2024-01-15T02:52:57;62164.41;;;15.87;100.00
50430;BME280;36359;41.556;-8.418;2024-01-15T02:55:23;62169.28;;;15.89;100.00
50430;BME280;36359;41.556;-8.418;2024-01-15T02:57:48;62168.78;;;15.86;100.00
50430;BME280;36359;41.556;-8.418;2024-01-15T03:00:14;62169.84;;;15.87;100.00
50430;BME280;36359;41.556;-8.418;2024-01-15T03:02:40;62165.47;;;15.88;100.00
50430;BME280;36359;41.556;-8.418;2024-01-15T03:05:12;62169.31;;;15.86;100.00
50430;BME280;36359;41.556;-8.418;2024-01-15T03:07:37;62163.38;;;15.83;100.00
50430;BME280;36359;41.556;-8.418;2024-01-15T03:10:04;62161.28;;;15.79;100.00
50430;BME280;36359;41.556;-8.418;2024-01-15T03:12:31;62158.56;;;15.79;100.00
50430;BME280;36359;41.556;-8.418;2024-01-15T03:14:57;62160.19;;;15.80;100.00
50430;BME280;36359;41.556;-8.418;2024-01-15T03:17:22;62166.63;;;15.84;100.00
50430;BME280;36359;41.556;-8.418;2024-01-15T03:19:48;62162.84;;;15.83;100.00
50430;BME280;36359;41.556;-8.418;2024-01-15T03:22:16;62164.97;;;15.85;100.00
50430;BME280;36359;41.556;-8.418;2024-01-15T03:24:42;62160.72;;;15.81;100.00
50430;BME280;36359;41.556;-8.418;2024-01-15T03:27:07;62164.97;;;15.85;100.00
50430;BME280;36359;41.556;-8.418;2024-01-15T03:29:33;62174.19;;;15.86;100.00
50430;BME280;36359;41.556;-8.418;2024-01-15T03:31:59;62174.63;;;15.94;100.00
50430;BME280;36359;41.556;-8.418;2024-01-15T03:34:24;62175.19;;;15.92;100.00
50430;BME280;36359;41.556;-8.418;2024-01-15T03:36:50;62157.47;;;15.80;100.00
50430;BME280;36359;41.556;-8.418;2024-01-15T03:39:16;62166.59;;;15.86;100.00
50430;BME280;36359;41.556;-8.418;2024-01-15T03:41:42;62164.47;;;15.82;100.00
50430;BME280;36359;41.556;-8.418;2024-01-15T03:44:07;62157.00;;;15.75;100.00
50430;BME280;36359;41.556;-8.418;2024-01-15T03:46:33;62154.78;;;15.78;100.00
50430;BME280;36359;41.556;-8.418;2024-01-15T03:48:59;62149.44;;;15.73;100.00
50430;BME280;36359;41.556;-8.418;2024-01-15T03:51:24;62144.06;;;15.67;100.00
50430;BME280;36359;41.556;-8.418;2024-01-15T03:53:50;62143.50;;;15.67;100.00
50430;BME280;36359;41.556;-8.418;2024-01-15T03:56:16;62140.84;;;15.64;100.00
50430;BME280;36359;41.556;-8.418;2024-01-15T03:58:42;62148.94;;;15.67;100.00
50430;BME280;36359;41.556;-8.418;2024-01-15T04:01:09;62152.13;;;15.73;100.00
50430;BME280;36359;41.556;-8.418;2024-01-15T04:03:35;62153.22;;;15.74;100.00
50430;BME280;36359;41.556;-8.418;2024-01-15T04:06:01;62153.75;;;15.74;100.00
50430;BME280;36359;41.556;-8.418;2024-01-15T04:08:27;62160.19;;;15.80;100.00
50430;BME280;36359;41.556;-8.418;2024-01-15T04:10:53;62168.78;;;15.86;100.00
50430;BME280;36359;41.556;-8.418;2024-01-15T04:13:18;62173.56;;;15.93;100.00
50430;BME280;36359;41.556;-8.418;2024-01-15T04:15:44;62170.88;;;15.90;100.00
50430;BME280;36359;41.556;-8.418;2024-01-15T04:18:10;62164.41;;;15.87;100.00
50430;BME280;36359;41.556;-8.418;2024-01-15T04:20:35;62163.34;;;15.86;100.00
50430;BME280;36359;41.556;-8.418;2024-01-15T04:23:01;62164.41;;;15.87;100.00
50430;BME280;36359;41.556;-8.418;2024-01-15T04:25:27;62163.34;;;15.86;100.00
50430;BME280;36359;41.556;-8.418;2024-01-15T04:27:53;62161.75;;;15.84;100.00
50430;BME280;36359;41.556;-8.418;2024-01-15T04:30:18;62165.53;;;15.85;100.00
50430;BME280;36359;41.556;-8.418;2024-01-15T04:32:44;62170.91;;;15.88;100.00
50430;BME280;36359;41.556;-8.418;2024-01-15T04:35:10;62161.75;;;15.84;100.00
50430;BME280;36359;41.556;-8.418;2024-01-15T04:37:35;62167.09;;;15.89;100.00
50430;BME280;36359;41.556;-8.418;2024-01-15T04:40:02;62171.47;;;15.88;100.00
50430;BME280;36359;41.556;-8.418;2024-01-15T04:42:29;62173.06;;;15.90;100.00
50430;BME280;36359;41.556;-8.418;2024-01-15T04:44:55;62171.41;;;15.91;100.00
50430;BME280;36359;41.556;-8.418;2024-01-15T04:47:20;62166.56;;;15.89;100.00
50430;BME280;36359;41.556;-8.418;2024-01-15T04:49:46;62170.38;;;15.87;100.00
50430;BME280;36359;41.556;-8.418;2024-01-15T04:52:13;62167.63;;;15.90;100.00
50430;BME280;36359;41.556;-8.418;2024-01-15T04:54:39;62167.69;;;15.85;100.00
50430;BME280;36359;41.556;-8.418;2024-01-15T04:57:04;62167.69;;;15.85;100.00
50430;BME280;36359;41.556;-8.418;2024-01-15T04:59:30;62161.22;;;15.84;100.00
50430;BME280;36359;41.556;-8.418;2024-01-15T05:01:56;62167.13;;;15.87;100.00
50430;BME280;36359;41.556;-8.418;2024-01-15T05:04:22;62161.78;;;15.82;100.00
50430;BME280;36359;41.556;-8.418;2024-01-15T05:06:48;62157.47;;;15.80;100.00
50430;BME280;36359;41.556;-8.418;2024-01-15T05:09:14;62167.13;;;15.87;100.00
50430;BME280;36359;41.556;-8.418;2024-01-15T05:11:40;62172.56;;;15.87;100.00
50430;BME280;36359;41.556;-8.418;2024-01-15T05:14:05;62167.66;;;15.87;100.00
50430;BME280;36359;41.556;-8.418;2024-01-15T05:16:31;62171.47;;;15.88;100.00
50430;BME280;36359;41.556;-8.418;2024-01-15T05:18:57;62173.00;;;15.95;100.00
50430;BME280;36359;41.556;-8.418;2024-01-15T05:21:22;62190.72;;;16.07;100.00
50430;BME280;36359;41.556;-8.418;2024-01-15T05:23:48;62199.25;;;16.18;100.00
50430;BME280;36359;41.556;-8.418;2024-01-15T05:26:14;62198.22;;;16.14;100.00
50430;BME280;36359;41.556;-8.418;2024-01-15T05:28:43;62194.97;;;16.13;100.00
50430;BME280;36359;41.556;-8.418;2024-01-15T05:31:09;62189.13;;;16.05;100.00
50430;BME280;36359;41.556;-8.418;2024-01-15T05:33:36;62190.69;;;16.09;100.00
50430;BME280;36359;41.556;-8.418;2024-01-15T05:36:02;62191.78;;;16.08;100.00
50430;BME280;36359;41.556;-8.418;2024-01-15T05:38:28;62189.63;;;16.08;100.00
50430;BME280;36359;41.556;-8.418;2024-01-15T05:40:53;62179.94;;;16.02;100.00
50430;BME280;36359;41.556;-8.418;2024-01-15T05:43:19;62188.56;;;16.07;100.00
50430;BME280;36359;41.556;-8.418;2024-01-15T05:45:45;62198.22;;;16.14;100.00
50430;BME280;36359;41.556;-8.418;2024-01-15T05:48:12;62197.63;;;16.19;100.00
50430;BME280;36359;41.556;-8.418;2024-01-15T05:50:38;62196.63;;;16.12;100.00
50430;BME280;36359;41.556;-8.418;2024-01-15T05:53:04;62191.22;;;16.12;100.00
50430;BME280;36359;41.556;-8.418;2024-01-15T05:55:30;62189.63;;;16.08;100.00
50430;BME280;36359;41.556;-8.418;2024-01-15T05:57:55;62189.13;;;16.05;100.00
50430;BME280;36359;41.556;-8.418;2024-01-15T06:00:21;62184.28;;;16.03;100.00
50430;BME280;36359;41.556;-8.418;2024-01-15T06:02:47;62183.19;;;16.02;100.00
50430;BME280;36359;41.556;-8.418;2024-01-15T06:05:13;62189.63;;;16.08;100.00
50430;BME280;36359;41.556;-8.418;2024-01-15T06:07:39;62194.47;;;16.10;100.00
50430;BME280;36359;41.556;-8.418;2024-01-15T06:10:05;62192.28;;;16.13;100.00
50430;BME280;36359;41.556;-8.418;2024-01-15T06:12:31;62193.94;;;16.10;100.00
50430;BME280;36359;41.556;-8.418;2024-01-15T06:14:58;62188.56;;;16.07;100.00
50430;BME280;36359;41.556;-8.418;2024-01-15T06:17:23;62189.63;;;16.08;100.00
50430;BME280;36359;41.556;-8.418;2024-01-15T06:19:49;62188.03;;;16.07;100.00
50430;BME280;36359;41.556;-8.418;2024-01-15T06:22:15;62186.91;;;16.08;100.00
50430;BME280;36359;41.556;-8.418;2024-01-15T06:24:41;62189.63;;;16.08;100.00
50430;BME280;36359;41.556;-8.418;2024-01-15T06:27:06;62190.13;;;16.11;100.00
50430;BME280;36359;41.556;-8.418;2024-01-15T06:29:32;62196.53;;;16.18;100.00
50430;BME280;36359;41.556;-8.418;2024-01-15T06:31:58;62197.13;;;16.16;100.00
50430;BME280;36359;41.556;-8.418;2024-01-15T06:34:24;62199.78;;;16.21;100.00
50430;BME280;36359;41.556;-8.418;2024-01-15T06:36:49;62196.03;;;16.15;100.00
50430;BME280;36359;41.556;-8.418;2024-01-15T06:39:15;62202.50;;;16.21;100.00
50430;BME280;36359;41.556;-8.418;2024-01-15T06:41:41;62203.00;;;16.24;100.00
50430;BME280;36359;41.556;-8.418;2024-01-15T06:44:12;62205.13;;;16.26;100.00
50430;BME280;36359;41.556;-8.418;2024-01-15T06:46:44;62198.69;;;16.20;100.00
50430;BME280;36359;41.556;-8.418;2024-01-15T06:49:10;62203.06;;;16.19;100.00
50430;BME280;36359;41.556;-8.418;2024-01-15T06:51:36;62199.25;;;16.18;100.00
50430;BME280;36359;41.556;-8.418;2024-01-15T06:54:02;62200.91;;;16.17;100.00
50430;BME280;36359;41.556;-8.418;2024-01-15T06:56:28;62194.41;;;16.16;100.00
50430;BME280;36359;41.556;-8.418;2024-01-15T06:58:54;62196.53;;;16.18;100.00
50430;BME280;36359;41.556;-8.418;2024-01-15T07:01:19;62199.31;;;16.15;100.00
50430;BME280;36359;41.556;-8.418;2024-01-15T07:03:46;62197.63;;;16.19;100.00
50430;BME280;36359;41.556;-8.418;2024-01-15T07:06:12;62204.06;;;16.25;100.00
50430;BME280;36359;41.556;-8.418;2024-01-15T07:08:39;62213.19;;;16.31;100.00
50430;BME280;36359;41.556;-8.418;2024-01-15T07:11:05;62206.25;;;16.24;100.00
50430;BME280;36359;41.556;-8.418;2024-01-15T07:13:31;62206.81;;;16.22;100.00
50430;BME280;36359;41.556;-8.418;2024-01-15T07:15:57;62208.91;;;16.27;100.00
50430;BME280;36359;41.556;-8.418;2024-01-15T07:18:23;62209.41;;;16.30;100.00
50430;BME280;36359;41.556;-8.418;2024-01-15T07:20:49;62203.00;;;16.24;100.00
50430;BME280;36359;41.556;-8.418;2024-01-15T07:23:15;62214.84;;;16.30;100.00
50430;BME280;36359;41.556;-8.418;2024-01-15T07:25:40;62205.69;;;16.24;100.00
50430;BME280;36359;41.556;-8.418;2024-01-15T07:28:06;62211.03;;;16.29;100.00
50430;BME280;36359;41.556;-8.418;2024-01-15T07:30:32;62208.34;;;16.29;100.00
50430;BME280;36359;41.556;-8.418;2024-01-15T07:32:58;62212.63;;;16.33;100.00
50430;BME280;36359;41.556;-8.418;2024-01-15T07:35:23;62208.34;;;16.29;100.00
50430;BME280;36359;41.556;-8.418;2024-01-15T07:37:49;62210.47;;;16.31;100.00
50430;BME280;36359;41.556;-8.418;2024-01-15T07:40:15;62228.19;;;16.45;100.00
50430;BME280;36359;41.556;-8.418;2024-01-15T07:42:41;62224.47;;;16.39;100.00
50430;BME280;36359;41.556;-8.418;2024-01-15T07:45:11;62218.03;;;16.35;100.00
50430;BME280;36359;41.556;-8.418;2024-01-15T07:47:37;62219.06;;;16.39;100.00
50430;BME280;36359;41.556;-8.418;2024-01-15T07:50:03;62229.84;;;16.44;100.00
50430;BME280;36359;41.556;-8.418;2024-01-15T07:52:30;62231.91;;;16.51;100.00
50430;BME280;36359;41.556;-8.418;2024-01-15T07:54:56;62229.78;;;16.47;100.00
50430;BME280;36359;41.556;-8.418;2024-01-15T07:57:22;62230.34;;;16.47;100.00
50430;BME280;36359;41.556;-8.418;2024-01-15T07:59:48;62239.47;;;16.56;100.00
50430;BME280;36359;41.556;-8.418;2024-01-15T08:02:14;62240.50;;;16.60;100.00
50430;BME280;36359;41.556;-8.418;2024-01-15T08:04:40;62255.53;;;16.71;100.00
50430;BME280;36359;41.556;-8.418;2024-01-15T08:07:05;62255.00;;;16.71;100.00
50430;BME280;36359;41.556;-8.418;2024-01-15T08:09:34;62252.84;;;16.69;100.00
50430;BME280;36359;41.556;-8.418;2024-01-15T08:12:00;62252.31;;;16.68;100.00
50430;BME280;36359;41.556;-8.418;2024-01-15T08:14:26;62247.97;;;16.67;100.00
50430;BME280;36359;41.556;-8.418;2024-01-15T08:16:52;62245.34;;;16.62;100.00
50430;BME280;36359;41.556;-8.418;2024-01-15T08:19:18;62243.16;;;16.62;100.00
50430;BME280;36359;41.556;-8.418;2024-01-15T08:21:45;62242.66;;;16.59;100.00
50430;BME280;36359;41.556;-8.418;2024-01-15T08:24:11;62246.97;;;16.61;100.00
50430;BME280;36359;41.556;-8.418;2024-01-15T08:26:37;62236.75;;;16.56;100.00
50430;BME280;36359;41.556;-8.418;2024-01-15T08:29:03;62235.69;;;16.52;100.00
50430;BME280;36359;41.556;-8.418;2024-01-15T08:31:29;62245.91;;;16.60;100.00
50430;BME280;36359;41.556;-8.418;2024-01-15T08:33:55;62251.22;;;16.67;100.00
50430;BME280;36359;41.556;-8.418;2024-01-15T08:36:21;62253.38;;;16.69;100.00
50430;BME280;36359;41.556;-8.418;2024-01-15T08:41:17;62246.41;;;16.63;100.00
50430;BME280;36359;41.556;-8.418;2024-01-15T08:43:43;62237.31;;;16.54;100.00
50430;BME280;36359;41.556;-8.418;2024-01-15T08:46:08;62234.09;;;16.51;100.00
50430;BME280;36359;41.556;-8.418;2024-01-15T08:48:34;62233.56;;;16.50;100.00
50430;BME280;36359;41.556;-8.418;2024-01-15T08:51:00;62241.56;;;16.61;100.00
50430;BME280;36359;41.556;-8.418;2024-01-15T08:53:26;62235.13;;;16.54;100.00
50430;BME280;36359;41.556;-8.418;2024-01-15T08:55:52;62236.19;;;16.55;100.00
50430;BME280;36359;41.556;-8.418;2024-01-15T08:58:18;62242.13;;;16.58;100.00
50430;BME280;36359;41.556;-8.418;2024-01-15T09:00:44;62232.44;;;16.52;100.00
50430;BME280;36359;41.556;-8.418;2024-01-15T09:03:09;62226.56;;;16.46;100.00
50430;BME280;36359;41.556;-8.418;2024-01-15T09:05:35;62229.28;;;16.44;100.00
50430;BME280;36359;41.556;-8.418;2024-01-15T09:08:01;62227.13;;;16.44;100.00
50430;BME280;36359;41.556;-8.418;2024-01-15T09:10:27;62219.59;;;16.40;100.00
50430;BME280;36359;41.556;-8.418;2024-01-15T09:12:53;62235.16;;;16.52;100.00
50430;BME280;36359;41.556;-8.418;2024-01-15T09:15:19;62230.34;;;16.47;100.00
50430;BME280;36359;41.556;-8.418;2024-01-15T09:17:45;62248.00;;;16.64;100.00
50430;BME280;36359;41.556;-8.418;2024-01-15T09:20:12;62255.50;;;16.74;100.00
50430;BME280;36359;41.556;-8.418;2024-01-15T09:22:38;62265.72;;;16.81;100.00
50430;BME280;36359;41.556;-8.418;2024-01-15T09:25:10;62263.56;;;16.79;100.00
50430;BME280;36359;41.556;-8.418;2024-01-15T09:27:36;62259.81;;;16.78;100.00
50430;BME280;36359;41.556;-8.418;2024-01-15T09:30:06;62275.38;;;16.90;100.00
50430;BME280;36359;41.556;-8.418;2024-01-15T09:32:32;62278.03;;;16.95;100.00
50430;BME280;36359;41.556;-8.418;2024-01-15T09:34:58;62268.38;;;16.86;100.00
50430;BME280;36359;41.556;-8.418;2024-01-15T09:37:24;62260.91;;;16.76;100.00
50430;BME280;36359;41.556;-8.418;2024-01-15T09:39:50;62258.72;;;16.77;100.00
50430;BME280;36359;41.556;-8.418;2024-01-15T09:42:16;62259.25;;;16.77;100.00
50430;BME280;36359;41.556;-8.418;2024-01-15T09:44:42;62252.84;;;16.69;100.00
50430;BME280;36359;41.556;-8.418;2024-01-15T09:47:09;62258.72;;;16.77;100.00
50430;BME280;36359;41.556;-8.418;2024-01-15T09:49:35;62282.38;;;16.94;100.00
50430;BME280;36359;41.556;-8.418;2024-01-15T09:52:01;62279.13;;;16.94;100.00
50430;BME280;36359;41.556;-8.418;2024-01-15T09:54:27;62266.22;;;16.84;100.00
50430;BME280;36359;41.556;-8.418;2024-01-15T09:56:54;62275.34;;;16.93;100.00
50430;BME280;36359;41.556;-8.418;2024-01-15T09:59:20;62287.16;;;17.01;100.00
50430;BME280;36359;41.556;-8.418;2024-01-15T10:01:47;62285.56;;;17.00;100.00
50430;BME280;36359;41.556;-8.418;2024-01-15T10:04:14;62279.69;;;16.94;100.00
50430;BME280;36359;41.556;-8.418;2024-01-15T10:06:50;62271.66;;;16.84;100.00
50430;BME280;36359;41.556;-8.418;2024-01-15T10:11:50;62281.84;;;16.94;100.00
50430;BME280;36359;41.556;-8.418;2024-01-15T10:14:16;62281.25;;;16.98;100.00
50430;BME280;36359;41.556;-8.418;2024-01-15T10:16:42;62284.97;;;17.02;100.00
50430;BME280;36359;41.556;-8.418;2024-01-15T10:19:09;62281.25;;;16.98;100.00
50430;BME280;36359;41.556;-8.418;2024-01-15T10:21:36;62279.09;;;16.96;100.00
50430;BME280;36359;41.556;-8.418;2024-01-15T10:24:06;62282.38;;;16.94;100.00
50430;BME280;36359;41.556;-8.418;2024-01-15T10:26:32;62279.09;;;16.96;100.00
50430;BME280;36359;41.556;-8.418;2024-01-15T10:28:59;62280.19;;;16.97;100.00
50430;BME280;36359;41.556;-8.418;2024-01-15T10:31:26;62283.38;;;17.00;100.00
50430;BME280;36359;41.556;-8.418;2024-01-15T10:33:52;62279.13;;;16.94;100.00
50430;BME280;36359;41.556;-8.418;2024-01-15T10:36:18;62286.66;;;16.98;100.00
50430;BME280;36359;41.556;-8.418;2024-01-15T10:38:45;62276.41;;;16.94;100.00
50430;BME280;36359;41.556;-8.418;2024-01-15T10:41:11;62273.22;;;16.88;100.00
50430;BME280;36359;41.556;-8.418;2024-01-15T10:43:37;62265.69;;;16.84;100.00
50430;BME280;36359;41.556;-8.418;2024-01-15T10:46:04;62262.47;;;16.80;100.00
50430;BME280;36359;41.556;-8.418;2024-01-15T10:48:30;62248.50;;;16.67;100.00
50430;BME280;36359;41.556;-8.418;2024-01-15T10:50:57;62253.34;;;16.72;100.00
50430;BME280;36359;41.556;-8.418;2024-01-15T10:53:26;62256.06;;;16.72;100.00
50430;BME280;36359;41.556;-8.418;2024-01-15T10:55:53;62251.69;;;16.73;100.00
50430;BME280;36359;41.556;-8.418;2024-01-15T10:58:20;62261.47;;;16.74;100.00
50430;BME280;36359;41.556;-8.418;2024-01-15T11:00:46;62255.50;;;16.74;100.00
50430;BME280;36359;41.556;-8.418;2024-01-15T11:03:12;62257.09;;;16.75;100.00
50430;BME280;36359;41.556;-8.418;2024-01-15T11:05:43;62258.22;;;16.74;100.00
50430;BME280;36359;41.556;-8.418;2024-01-15T11:08:09;62256.59;;;16.72;100.00
50430;BME280;36359;41.556;-8.418;2024-01-15T11:10:43;62257.66;;;16.76;100.00
50430;BME280;36359;41.556;-8.418;2024-01-15T11:16:09;62265.13;;;16.86;100.00
50430;BME280;36359;41.556;-8.418;2024-01-15T11:21:24;62266.75;;;16.85;100.00
50430;BME280;36359;41.556;-8.418;2024-01-15T11:23:59;62275.41;;;16.88;100.00
50430;BME280;36359;41.556;-8.418;2024-01-15T11:29:08;62271.59;;;16.89;100.00
50430;BME280;36359;41.556;-8.418;2024-01-15T11:34:07;62279.09;;;16.96;100.00
50430;BME280;36359;41.556;-8.418;2024-01-15T11:42:03;62287.16;;;17.01;100.00
50430;BME280;36359;41.556;-8.418;2024-01-15T11:44:30;62288.78;;;17.03;100.00
50430;BME280;36359;41.556;-8.418;2024-01-15T11:47:02;62294.66;;;17.09;100.00
50430;BME280;36359;41.556;-8.418;2024-01-15T11:49:46;62296.25;;;17.13;100.00
50430;BME280;36359;41.556;-8.418;2024-01-15T11:52:20;62296.28;;;17.10;100.00
50430;BME280;36359;41.556;-8.418;2024-01-15T11:55:00;62290.38;;;17.05;100.00
50430;BME280;36359;41.556;-8.418;2024-01-15T12:00:10;62283.88;;;17.03;100.00
50430;BME280;36359;41.556;-8.418;2024-01-15T12:02:43;62300.56;;;17.14;100.00
50430;BME280;36359;41.556;-8.418;2024-01-15T12:05:11;62306.97;;;17.23;100.00
50430;BME280;36359;41.556;-8.418;2024-01-15T12:07:40;62318.75;;;17.34;100.00
50430;BME280;36359;41.556;-8.418;2024-01-15T12:15:18;62317.72;;;17.31;100.00
50430;BME280;36359;41.556;-8.418;2024-01-15T12:17:45;62306.97;;;17.23;100.00
50430;BME280;36359;41.556;-8.418;2024-01-15T12:20:11;62299.47;;;17.16;100.00
50430;BME280;36359;41.556;-8.418;2024-01-15T12:22:38;62318.25;;;17.31;100.00
50430;BME280;36359;41.556;-8.418;2024-01-15T12:25:08;62326.84;;;17.39;100.00
50430;BME280;36359;41.556;-8.418;2024-01-15T12:27:33;62333.28;;;17.45;100.00
50430;BME280;36359;41.556;-8.418;2024-01-15T12:29:59;62331.13;;;17.43;100.00
50430;BME280;36359;41.556;-8.418;2024-01-15T12:32:25;62328.94;;;17.44;100.00
50430;BME280;36359;41.556;-8.418;2024-01-15T12:34:51;62321.94;;;17.40;100.00
50430;BME280;36359;41.556;-8.418;2024-01-15T12:37:20;62330.56;;;17.45;100.00
50430;BME280;36359;41.556;-8.418;2024-01-15T12:39:49;62334.34;;;17.46;100.00
50430;BME280;36359;41.556;-8.418;2024-01-15T12:42:16;62335.94;;;17.51;100.00
50430;BME280;36359;41.556;-8.418;2024-01-15T12:44:46;62341.84;;;17.56;100.00
50430;BME280;36359;41.556;-8.418;2024-01-15T12:47:12;62354.72;;;17.66;100.00
50430;BME280;36359;41.556;-8.418;2024-01-15T12:49:38;62343.94;;;17.61;100.00
50430;BME280;36359;41.556;-8.418;2024-01-15T12:52:08;62339.69;;;17.54;100.00
50430;BME280;36359;41.556;-8.418;2024-01-15T12:54:34;62335.44;;;17.47;100.00
50430;BME280;36359;41.556;-8.418;2024-01-15T12:57:00;62339.16;;;17.54;100.00
50430;BME280;36359;41.556;-8.418;2024-01-15T12:59:26;62339.66;;;17.57;100.00
50430;BME280;36359;41.556;-8.418;2024-01-15T13:01:52;62342.94;;;17.55;100.00
50430;BME280;36359;41.556;-8.418;2024-01-15T13:04:25;62342.44;;;17.52;100.00
50430;BME280;36359;41.556;-8.418;2024-01-15T13:06:51;62330.03;;;17.45;100.00